Time;durP1;ratioP1;P1;durP2;ratioP2;P2;SDS_P1;SDS_P2;PMS_P1;PMS_P2;Temp;Humidity;BMP_temperature;BMP_pressure;BME280_temperature;BME280_humidity;BME280_pressure;Samples;Min_cycle;Max_cycle;Signal;HPM_P1;HPM_P2
2021/07/24 00:00:39;;;;;;;17.33;15.73;;;18.30;99.90;;;19.39;78.00;97412.19;5210629;28;20228;-63
2021/07/24 00:03:13;;;;;;;18.30;16.40;;;18.30;99.90;;;19.35;77.75;97413.88;5212124;28;20205;-63
2021/07/24 00:05:46;;;;;;;17.08;15.50;;;18.30;99.90;;;19.30;78.42;97407.75;5212897;28;20292;-63
2021/07/24 00:08:19;;;;;;;17.27;15.57;;;18.30;99.90;;;19.32;77.85;97406.06;5212598;28;20222;-63
2021/07/24 00:10:53;;;;;;;17.98;16.17;;;18.30;99.90;;;19.29;78.09;97400.81;5212389;28;20205;-63
2021/07/24 00:13:26;;;;;;;17.45;15.75;;;18.30;99.90;;;19.18;77.88;97394.59;5210940;28;20285;-63
2021/07/24 00:15:59;;;;;;;17.48;15.82;;;18.20;99.90;;;19.20;78.37;97381.66;5211932;28;20316;-63
2021/07/24 00:18:34;;;;;;;17.95;16.15;;;18.20;99.90;;;19.20;78.75;97376.47;5211358;28;20206;-63
2021/07/24 00:21:07;;;;;;;18.60;16.70;;;18.30;99.90;;;19.23;78.55;97380.00;5211193;28;20301;-63
2021/07/24 00:23:40;;;;;;;17.00;15.50;;;18.20;99.90;;;19.20;78.56;97379.97;5211354;28;20198;-63
2021/07/24 00:26:14;;;;;;;17.92;16.10;;;18.30;99.90;;;19.18;78.51;97376.47;5210831;28;20197;-63
2021/07/24 00:28:47;;;;;;;17.42;15.82;;;18.30;99.90;;;19.16;78.37;97378.16;5210698;28;20305;-64
2021/07/24 00:31:20;;;;;;;17.65;16.08;;;18.20;99.90;;;19.21;77.95;97370.47;5212773;28;20198;-62
2021/07/24 00:33:55;;;;;;;17.27;15.57;;;18.20;99.90;;;19.20;78.69;97367.00;5211568;28;20547;-63
2021/07/24 00:36:28;;;;;;;17.33;15.57;;;18.20;99.90;;;19.16;78.60;97360.03;5209888;28;20225;-62
2021/07/24 00:39:07;;;;;;;17.67;16.10;;;18.20;99.90;;;19.08;77.91;97364.22;5209445;28;20638;-63
2021/07/24 00:41:44;;;;;;;16.92;15.25;;;18.10;99.90;;;19.10;78.16;97362.53;5209662;28;20208;-63
2021/07/24 00:44:21;;;;;;;17.23;15.52;;;18.00;99.90;;;19.07;77.84;97355.56;5210963;28;20201;-62
2021/07/24 00:46:55;;;;;;;16.38;14.88;;;18.00;99.90;;;19.01;78.65;97352.88;5209267;28;20205;-62
2021/07/24 00:49:33;;;;;;;16.63;15.02;;;18.00;99.90;;;19.00;78.48;97351.16;5212836;28;20267;-63
2021/07/24 00:52:07;;;;;;;16.95;15.45;;;18.00;99.90;;;18.97;78.89;97348.53;5212531;28;20208;-63
2021/07/24 00:54:40;;;;;;;16.35;14.95;;;18.00;99.90;;;18.91;78.70;97353.56;5211026;28;20208;-63
2021/07/24 00:57:15;;;;;;;16.50;14.80;;;17.90;99.90;;;18.89;78.49;97347.53;5208833;28;20213;-64
2021/07/24 00:59:49;;;;;;;17.08;15.45;;;17.90;99.90;;;18.93;78.39;97351.88;5208516;28;20228;-64
2021/07/24 01:02:22;;;;;;;17.33;15.73;;;17.90;99.90;;;18.91;78.43;97348.41;5209356;28;20296;-64
2021/07/24 01:04:56;;;;;;;16.83;15.32;;;17.90;99.90;;;18.92;78.77;97346.72;5208700;28;20791;-64
2021/07/24 01:07:32;;;;;;;16.08;14.52;;;17.90;99.90;;;18.87;78.57;97349.22;5207226;28;20189;-64
2021/07/24 01:10:07;;;;;;;16.60;15.10;;;17.80;99.90;;;18.86;79.20;97347.47;5207742;28;20224;-64
2021/07/24 01:12:40;;;;;;;17.20;15.60;;;17.80;99.90;;;18.78;78.93;97349.94;5208161;28;20292;-64
2021/07/24 01:15:13;;;;;;;16.92;15.27;;;17.80;99.90;;;18.71;79.20;97353.22;5206018;28;20194;-64
2021/07/24 01:17:46;;;;;;;16.38;14.80;;;17.70;99.90;;;18.68;78.91;97355.75;5206594;28;20232;-64
2021/07/24 01:20:21;;;;;;;16.55;14.95;;;17.70;99.90;;;18.63;79.13;97355.69;5206724;28;20226;-64
2021/07/24 01:22:57;;;;;;;15.88;14.55;;;17.60;99.90;;;18.61;78.84;97351.34;5192184;28;20193;-63
2021/07/24 01:25:30;;;;;;;16.70;15.10;;;17.60;99.90;;;18.62;78.96;97358.25;5206050;28;20194;-64
2021/07/24 01:28:04;;;;;;;17.20;15.60;;;17.60;99.90;;;18.60;79.68;97344.38;5206074;28;20484;-64
2021/07/24 01:30:37;;;;;;;16.75;14.93;;;17.60;99.90;;;18.56;78.99;97345.19;5206319;28;20225;-64
2021/07/24 01:33:11;;;;;;;16.25;14.77;;;17.50;99.90;;;18.50;79.22;97347.69;5206843;28;20304;-64
2021/07/24 01:35:46;;;;;;;15.80;14.18;;;17.50;99.90;;;18.50;78.74;97348.56;5207165;28;20204;-64
2021/07/24 01:38:22;;;;;;;17.17;15.18;;;17.50;99.90;;;18.51;78.14;97341.66;5205777;28;20200;-64
2021/07/24 01:40:55;;;;;;;16.80;15.05;;;17.40;99.90;;;18.43;77.41;97342.41;5205322;28;20201;-64
2021/07/24 01:43:28;;;;;;;16.60;14.75;;;17.30;99.90;;;18.32;77.65;97346.50;5203849;28;20624;-64
2021/07/24 01:46:01;;;;;;;15.93;14.32;;;17.20;99.90;;;18.21;78.26;97329.91;5204878;28;20232;-64
2021/07/24 01:48:37;;;;;;;16.17;14.45;;;17.20;99.90;;;18.07;78.37;97324.47;5204316;28;20666;-64
2021/07/24 01:54:12;;;;;;;15.70;14.10;;;17.00;99.90;;;17.95;77.88;97312.19;5204861;28;20198;-63
2021/07/24 01:56:46;;;;;;;16.75;14.80;;;17.00;99.90;;;17.89;79.94;97306.91;5189489;28;20677;-63
2021/07/24 01:59:21;;;;;;;15.95;14.45;;;17.00;99.90;;;17.92;78.86;97306.97;5206446;28;20713;-64
2021/07/24 02:01:55;;;;;;;16.63;14.73;;;17.10;99.90;;;17.97;79.27;97318.28;5208237;28;20202;-64
2021/07/24 02:04:31;;;;;;;15.93;14.32;;;17.10;99.90;;;17.99;79.46;97324.31;5192747;28;20198;-64
2021/07/24 02:07:04;;;;;;;15.52;13.93;;;17.20;99.90;;;17.84;79.48;97333.50;5207245;28;20649;-64
2021/07/24 02:09:39;;;;;;;15.77;14.27;;;17.00;99.90;;;17.84;80.22;97339.56;5208207;28;20228;-63
2021/07/24 02:12:13;;;;;;;16.20;14.50;;;16.90;99.90;;;17.85;79.92;97340.41;5203954;28;20197;-64
2021/07/24 02:14:46;;;;;;;15.90;14.30;;;16.90;99.90;;;17.84;80.33;97344.72;5208983;28;20198;-63
2021/07/24 02:17:19;;;;;;;16.75;15.15;;;17.00;99.90;;;17.91;80.09;97345.72;5208562;28;20243;-63
2021/07/24 02:19:54;;;;;;;16.35;14.75;;;17.00;99.90;;;17.91;80.85;97362.13;5208862;28;20701;-63
2021/07/24 02:22:27;;;;;;;16.77;15.02;;;17.10;99.90;;;17.91;80.18;97366.38;5208573;28;20204;-63
2021/07/24 02:25:01;;;;;;;15.02;13.63;;;17.00;99.90;;;17.89;79.92;97363.78;5207876;28;20198;-63
2021/07/24 02:27:35;;;;;;;14.60;13.30;;;17.00;99.90;;;17.87;80.13;97373.22;5208869;28;20654;-63
2021/07/24 02:30:09;;;;;;;16.52;14.88;;;17.00;99.90;;;17.82;81.15;97379.13;5208293;28;20224;-63
2021/07/24 02:32:43;;;;;;;16.67;14.98;;;17.00;99.90;;;17.85;80.32;97366.28;5208391;28;20221;-63
2021/07/24 02:35:16;;;;;;;15.57;14.15;;;16.90;99.90;;;17.77;80.34;97363.53;5208202;28;20194;-63
2021/07/24 02:37:49;;;;;;;15.35;13.95;;;16.90;99.90;;;17.80;79.63;97363.63;5207707;28;20218;-64
2021/07/24 02:40:24;;;;;;;15.55;14.10;;;16.90;99.90;;;17.78;80.13;97360.13;5207522;28;20666;-63
2021/07/24 02:42:58;;;;;;;16.08;14.52;;;16.90;99.90;;;17.78;79.92;97358.41;5207704;28;20208;-63
2021/07/24 02:45:31;;;;;;;16.58;14.98;;;16.90;99.90;;;17.78;81.05;97360.13;5208068;28;20204;-63
2021/07/24 02:48:05;;;;;;;16.85;15.15;;;16.90;99.90;;;17.77;80.34;97359.22;5208402;28;20205;-63
2021/07/24 02:50:38;;;;;;;16.65;14.85;;;16.90;99.90;;;17.70;80.22;97352.16;5208532;28;20221;-63
2021/07/24 02:53:11;;;;;;;16.17;14.48;;;16.80;99.90;;;17.62;79.80;97352.84;5208075;28;20304;-63
2021/07/24 02:55:45;;;;;;;15.73;14.13;;;16.70;99.90;;;17.58;80.07;97351.03;5207614;28;20216;-63
2021/07/24 02:58:18;;;;;;;16.13;14.40;;;16.70;99.90;;;17.63;80.83;97345.13;5207777;28;20227;-64
2021/07/24 03:00:51;;;;;;;15.10;13.70;;;16.80;99.90;;;17.68;81.76;97337.44;5207756;28;20234;-64
2021/07/24 03:03:25;;;;;;;16.02;14.52;;;16.90;99.90;;;17.68;81.08;97337.44;5208109;28;20206;-63
2021/07/24 03:05:58;;;;;;;16.00;14.45;;;16.80;99.90;;;17.61;80.81;97340.75;5208027;28;20204;-64
2021/07/24 03:08:31;;;;;;;16.35;14.70;;;16.80;99.90;;;17.54;79.48;97344.91;5207160;28;20205;-64
2021/07/24 03:11:05;;;;;;;16.48;14.77;;;16.70;99.90;;;17.53;81.13;97349.22;5205267;28;20204;-63
2021/07/24 03:13:38;;;;;;;15.27;13.88;;;16.70;99.90;;;17.52;81.92;97344.03;5207717;28;20193;-63
2021/07/24 03:16:12;;;;;;;15.00;13.50;;;16.80;99.90;;;17.57;81.22;97337.25;5207709;28;20198;-63
2021/07/24 03:18:45;;;;;;;15.85;14.35;;;16.80;99.90;;;17.60;80.30;97339.00;5206771;28;20226;-64
2021/07/24 03:21:19;;;;;;;16.17;14.57;;;16.70;99.90;;;17.55;80.15;97344.09;5207673;28;20202;-63
2021/07/24 03:23:53;;;;;;;17.55;15.80;;;16.70;99.90;;;17.62;81.55;97353.69;5205987;28;20232;-62
2021/07/24 03:26:28;;;;;;;15.35;13.95;;;16.80;99.90;;;17.67;81.34;97349.50;5206346;28;20276;-63
2021/07/24 03:29:01;;;;;;;15.40;13.93;;;16.90;99.90;;;17.79;80.93;97351.50;5205753;28;20599;-64
2021/07/24 03:31:35;;;;;;;16.35;14.65;;;17.00;99.90;;;17.77;80.79;97342.84;5206664;28;20255;-64
2021/07/24 03:34:09;;;;;;;16.10;14.60;;;17.00;99.90;;;17.77;80.69;97335.09;5206672;28;20193;-63
2021/07/24 03:36:42;;;;;;;16.15;14.60;;;16.90;99.90;;;17.70;79.80;97334.06;5205989;28;20198;-63
2021/07/24 03:39:15;;;;;;;16.23;14.60;;;16.80;99.90;;;17.67;80.25;97322.78;5205587;28;20699;-63
2021/07/24 03:41:50;;;;;;;15.80;14.30;;;16.80;99.90;;;17.65;80.59;97324.47;5206333;28;20212;-60
2021/07/24 03:44:23;;;;;;;17.13;15.40;;;16.80;99.90;;;17.69;80.62;97328.88;5206170;28;20202;-62
2021/07/24 03:46:56;;;;;;;16.92;15.20;;;16.90;99.90;;;17.69;80.80;97324.56;5205983;28;20202;-62
2021/07/24 03:49:29;;;;;;;16.55;14.95;;;16.80;99.90;;;17.69;80.59;97313.38;5205839;28;20686;-61
2021/07/24 03:52:02;;;;;;;16.73;15.00;;;16.80;99.90;;;17.70;80.30;97305.63;5206035;28;20198;-62
2021/07/24 03:54:35;;;;;;;15.65;14.18;;;16.80;99.90;;;17.76;80.92;97299.72;5205733;28;20202;-62
2021/07/24 03:57:09;;;;;;;16.50;14.85;;;16.90;99.90;;;17.82;80.64;97299.84;5205885;28;20204;-62
2021/07/24 03:59:42;;;;;;;16.27;14.77;;;17.00;99.90;;;17.89;81.34;97301.75;5205848;28;20221;-63
2021/07/24 04:02:18;;;;;;;16.38;14.75;;;17.10;99.90;;;17.96;80.33;97303.59;5201081;28;20198;-62
2021/07/24 04:04:52;;;;;;;16.65;15.05;;;17.20;99.90;;;17.99;79.86;97303.63;5205080;28;20209;-62
2021/07/24 04:07:26;;;;;;;16.35;14.75;;;17.10;99.90;;;18.10;78.48;97310.75;5205789;28;20554;-62
2021/07/24 04:10:00;;;;;;;15.30;13.93;;;17.10;99.90;;;18.06;78.69;97309.81;5205030;28;20209;-62
2021/07/24 04:12:35;;;;;;;15.75;14.13;;;17.10;99.90;;;18.13;78.37;97315.97;5203767;28;20237;-62
2021/07/24 04:15:10;;;;;;;15.68;14.18;;;17.20;99.90;;;18.19;77.70;97310.91;5185478;28;20605;-63
2021/07/24 04:17:43;;;;;;;16.02;14.43;;;17.30;99.90;;;18.32;78.10;97319.78;5184989;28;20443;-62
2021/07/24 04:20:20;;;;;;;16.92;15.32;;;17.40;99.90;;;18.44;77.57;97305.31;5205242;28;20226;-62
2021/07/24 04:22:55;;;;;;;17.70;16.00;;;17.60;99.90;;;18.46;77.37;97311.41;5194099;28;20197;-62
2021/07/24 04:25:28;;;;;;;15.52;14.15;;;17.60;99.90;;;18.51;77.37;97310.59;5205267;28;20285;-60
2021/07/24 04:28:04;;;;;;;17.58;15.77;;;17.60;99.90;;;18.55;77.22;97302.91;5204617;28;20198;-61
2021/07/24 04:30:37;;;;;;;16.77;15.07;;;17.70;99.90;;;18.57;77.26;97310.69;5204693;28;20218;-63
2021/07/24 04:33:10;;;;;;;17.65;15.88;;;17.60;99.90;;;18.64;77.76;97302.19;5204985;28;20252;-62
2021/07/24 04:35:47;;;;;;;16.88;15.27;;;17.70;99.90;;;18.70;77.47;97304.88;5205453;28;20206;-62
2021/07/24 04:38:20;;;;;;;17.42;15.68;;;17.80;99.90;;;18.78;77.65;97316.25;5205105;28;20221;-62
2021/07/24 04:40:53;;;;;;;16.42;14.85;;;17.90;99.90;;;18.83;77.98;97317.22;5204811;28;20202;-63
2021/07/24 04:43:27;;;;;;;16.38;14.77;;;18.00;99.90;;;18.93;76.75;97338.06;5205569;28;20212;-63
2021/07/24 04:46:00;;;;;;;15.90;14.40;;;18.00;99.90;;;19.05;76.28;97354.66;5202743;28;20687;-60
2021/07/24 04:48:33;;;;;;;15.88;14.40;;;18.10;99.90;;;19.20;75.44;97359.22;5204272;28;20193;-64
2021/07/24 04:51:07;;;;;;;17.02;14.80;;;18.10;99.90;;;19.28;75.67;97367.09;5204960;28;20205;-62
2021/07/24 04:53:40;;;;;;;16.40;14.90;;;18.10;99.90;;;19.23;75.84;97358.38;5204879;28;20291;-63
2021/07/24 04:56:14;;;;;;;17.15;15.55;;;18.10;99.90;;;19.20;76.09;97359.22;5199077;28;20205;-63
2021/07/24 04:58:48;;;;;;;16.95;15.20;;;18.10;99.90;;;19.29;75.97;97367.13;5184466;28;20230;-63
2021/07/24 05:01:22;;;;;;;16.52;14.77;;;18.10;99.90;;;19.26;76.12;97354.13;5196392;28;20197;-63
2021/07/24 05:03:57;;;;;;;16.10;14.60;;;18.10;99.90;;;19.18;76.07;97358.34;5205130;28;20574;-62
2021/07/24 05:06:32;;;;;;;15.40;13.93;;;18.10;99.90;;;19.20;76.33;97372.19;5204585;28;20213;-62
2021/07/24 05:09:07;;;;;;;15.45;14.05;;;18.10;99.90;;;19.22;76.11;97367.00;5205015;28;20219;-63
2021/07/24 05:11:40;;;;;;;16.52;14.88;;;18.20;99.90;;;19.24;76.61;97381.75;5202391;28;20201;-62
2021/07/24 05:14:15;;;;;;;16.48;14.98;;;18.20;99.90;;;19.28;76.81;97388.69;5200369;28;20216;-62
2021/07/24 05:16:48;;;;;;;16.15;14.65;;;18.30;99.90;;;19.30;76.64;97397.38;5203985;28;20680;-61
2021/07/24 05:19:21;;;;;;;15.75;14.10;;;18.30;99.90;;;19.35;76.62;97406.09;5204003;28;20232;-63
2021/07/24 05:21:54;;;;;;;15.60;14.23;;;18.30;99.90;;;19.32;76.47;97398.28;5205034;28;20205;-63
2021/07/24 05:24:27;;;;;;;15.77;14.27;;;18.30;99.90;;;19.31;75.66;97374.91;5203407;28;20204;-63
2021/07/24 05:27:00;;;;;;;16.67;15.07;;;18.30;99.90;;;19.31;76.25;97373.19;5184986;28;20201;-63
2021/07/24 05:29:35;;;;;;;16.35;14.77;;;18.30;99.90;;;19.25;77.17;97375.69;5203336;28;20218;-64
2021/07/24 05:32:09;;;;;;;16.20;14.70;;;18.20;99.90;;;19.21;77.74;97370.47;5198955;28;20193;-65
2021/07/24 05:34:42;;;;;;;16.77;15.20;;;18.20;99.90;;;19.19;77.21;97377.34;5207396;28;20724;-65
2021/07/24 05:37:15;;;;;;;16.23;14.73;;;18.10;99.90;;;19.15;77.55;97368.66;5208126;28;20224;-64
2021/07/24 05:39:49;;;;;;;16.25;14.60;;;18.10;99.90;;;19.15;77.10;97360.88;5199477;28;20229;-64
2021/07/24 05:42:22;;;;;;;16.23;14.63;;;18.10;99.90;;;19.22;76.95;97360.09;5207134;28;20202;-64
2021/07/24 05:44:56;;;;;;;15.20;13.75;;;18.20;99.90;;;19.35;77.10;97364.63;5199382;28;20621;-65
2021/07/24 05:47:31;;;;;;;15.90;14.40;;;18.40;99.90;;;19.51;76.60;97375.22;5208397;28;20197;-65
2021/07/24 05:50:06;;;;;;;16.98;15.13;;;18.50;99.90;;;19.64;76.26;97382.31;5208071;28;20214;-65
2021/07/24 05:52:39;;;;;;;15.52;14.02;;;18.70;99.90;;;19.89;75.38;97399.13;5208121;28;20202;-65
2021/07/24 05:55:12;;;;;;;15.65;14.25;;;18.90;99.90;;;20.21;74.39;97404.69;5208223;28;20208;-65
2021/07/24 05:57:45;;;;;;;15.48;13.98;;;19.20;99.90;;;20.56;71.93;97419.81;5207238;28;20194;-65
2021/07/24 06:00:20;;;;;;;15.82;14.30;;;19.30;99.90;;;20.52;71.64;97427.50;5210563;28;20226;-65
2021/07/24 06:02:53;;;;;;;16.05;14.45;;;19.30;99.90;;;20.60;71.69;97436.28;5203393;28;20202;-65
2021/07/24 06:05:26;;;;;;;16.90;15.15;;;19.40;99.90;;;20.67;72.35;97423.38;5197787;28;20233;-65
2021/07/24 06:08:01;;;;;;;17.02;15.07;;;19.40;99.90;;;20.56;72.52;97425.00;5197105;28;20199;-65
2021/07/24 06:10:34;;;;;;;15.20;13.85;;;19.40;99.90;;;20.44;72.62;97437.84;5206223;28;20715;-65
2021/07/24 06:13:07;;;;;;;16.88;15.25;;;19.30;99.90;;;20.40;73.26;97438.63;5208794;28;20210;-65
2021/07/24 06:15:43;;;;;;;16.48;14.90;;;19.30;99.90;;;20.50;73.07;97440.50;5207726;28;20194;-65
2021/07/24 06:18:17;;;;;;;15.75;14.27;;;19.30;99.90;;;20.60;73.16;97429.41;5208023;28;20186;-68
2021/07/24 06:20:51;;;;;;;16.75;14.95;;;19.40;99.90;;;20.72;72.78;97419.97;5208179;28;20603;-66
2021/07/24 06:23:24;;;;;;;16.02;14.52;;;19.60;99.90;;;21.31;71.55;97427.41;5207728;28;20204;-68
2021/07/24 06:25:57;;;;;;;16.02;14.43;;;20.10;99.90;;;21.68;69.26;97436.38;5208317;28;20198;-64
2021/07/24 06:28:30;;;;;;;16.50;14.90;;;20.50;99.90;;;22.19;67.94;97432.34;5209207;28;20288;-64
2021/07/24 06:31:05;;;;;;;15.45;14.00;;;20.90;99.90;;;22.90;65.36;97428.19;5208525;28;20725;-64
2021/07/24 06:33:38;;;;;;;15.00;13.70;;;21.50;99.90;;;23.51;62.47;97426.50;5210390;28;20202;-64
2021/07/24 06:36:11;;;;;;;14.52;13.20;;;22.00;99.90;;;24.10;59.80;97441.19;5208435;28;20736;-65
2021/07/24 06:38:44;;;;;;;14.60;13.07;;;22.40;99.90;;;24.48;59.89;97445.41;5208199;28;20228;-64
2021/07/24 06:41:17;;;;;;;14.55;13.25;;;22.70;99.90;;;24.65;59.22;97440.97;5209071;28;20193;-64
2021/07/24 06:43:50;;;;;;;16.05;14.43;;;22.70;99.90;;;24.34;58.96;97444.59;5208056;28;20200;-63
2021/07/24 06:46:25;;;;;;;15.63;13.88;;;22.50;99.90;;;24.27;59.19;97444.59;5197875;28;20199;-63
2021/07/24 06:48:59;;;;;;;15.23;13.73;;;22.20;99.90;;;23.99;59.73;97456.88;5187512;28;20218;-64
2021/07/24 06:51:32;;;;;;;15.05;13.65;;;22.00;99.90;;;23.72;60.71;97446.50;5188028;28;20212;-65
2021/07/24 06:54:05;;;;;;;14.45;13.05;;;21.90;99.90;;;23.53;61.78;97467.38;5208202;28;20209;-64
2021/07/24 06:56:38;;;;;;;14.43;13.05;;;22.00;99.90;;;23.47;61.45;97471.72;5209386;28;20194;-64
2021/07/24 06:59:11;;;;;;;15.55;14.15;;;21.90;99.90;;;23.42;62.27;97457.81;5206858;28;20674;-64
2021/07/24 07:01:46;;;;;;;14.85;13.45;;;21.80;99.90;;;23.26;64.22;97452.59;5197664;28;20730;-64
2021/07/24 07:04:19;;;;;;;15.02;13.55;;;21.80;99.90;;;23.22;64.05;97470.84;5208551;28;20639;-64
2021/07/24 07:06:52;;;;;;;15.95;14.50;;;21.80;99.90;;;23.31;64.21;97483.91;5207858;28;20577;-64
2021/07/24 07:09:25;;;;;;;15.82;14.40;;;21.90;99.90;;;23.69;63.18;97478.66;5207381;28;20305;-64
2021/07/24 07:11:59;;;;;;;14.88;13.43;;;22.20;99.90;;;24.17;61.80;97486.44;5204603;28;20202;-64
2021/07/24 07:14:32;;;;;;;15.48;14.13;;;22.50;99.90;;;24.51;61.57;97466.31;5196978;28;20193;-64
2021/07/24 07:17:06;;;;;;;15.63;14.20;;;23.00;99.90;;;24.95;59.74;97473.94;5200563;28;20222;-64
2021/07/24 07:19:39;;;;;;;16.05;14.50;;;23.50;99.90;;;25.67;57.20;97469.03;5204211;28;20229;-64
2021/07/24 07:22:12;;;;;;;15.32;13.82;;;24.20;99.90;;;26.44;53.19;97459.50;5203605;28;20212;-64
2021/07/24 07:24:45;;;;;;;16.60;14.88;;;24.90;99.90;;;26.64;52.10;97455.75;5202598;28;20205;-64
2021/07/24 07:27:18;;;;;;;15.15;13.70;;;24.90;99.90;;;26.64;52.69;97455.75;5203814;28;20194;-64
2021/07/24 07:29:52;;;;;;;14.63;13.23;;;24.90;99.90;;;26.51;53.88;97461.19;5201701;28;20213;-64
2021/07/24 07:32:26;;;;;;;15.00;13.50;;;24.80;99.90;;;26.34;54.87;97463.09;5205689;28;20189;-64
2021/07/24 07:34:59;;;;;;;14.43;13.10;;;24.70;99.90;;;26.25;55.01;97455.38;5196628;28;20200;-64
2021/07/24 07:37:33;;;;;;;15.55;14.07;;;24.70;99.90;;;26.18;55.06;97453.69;5203232;28;20201;-64
2021/07/24 07:40:07;;;;;;;15.25;13.88;;;24.50;99.90;;;25.99;55.98;97447.81;5205246;28;20731;-64
2021/07/24 07:42:40;;;;;;;15.38;13.88;;;24.30;99.90;;;25.69;56.02;97451.56;5206282;28;20201;-64
2021/07/24 07:45:13;;;;;;;15.43;13.93;;;24.10;99.90;;;25.49;57.38;97455.22;5205267;28;20212;-64
2021/07/24 07:47:47;;;;;;;15.38;13.95;;;24.00;99.90;;;25.30;57.06;97458.91;5205477;28;20198;-64
2021/07/24 07:50:21;;;;;;;16.50;14.88;;;23.80;99.90;;;24.97;56.92;97470.41;5205682;28;20711;-64
2021/07/24 07:52:54;;;;;;;15.52;13.90;;;23.60;99.90;;;24.88;58.07;97471.34;5206747;28;20292;-65
2021/07/24 07:55:27;;;;;;;15.65;14.18;;;23.40;99.90;;;24.78;58.83;97469.66;5206968;28;20193;-64
2021/07/24 07:58:00;;;;;;;15.23;13.82;;;23.40;99.90;;;24.66;59.96;97474.06;5206478;28;20292;-64
2021/07/24 08:00:36;;;;;;;14.82;13.55;;;23.30;99.90;;;24.56;62.02;97475.00;5206711;28;20233;-64
2021/07/24 08:03:10;;;;;;;15.55;14.02;;;23.30;99.90;;;24.50;62.84;97493.31;5187095;28;20194;-64
2021/07/24 08:05:43;;;;;;;15.80;14.30;;;23.20;99.90;;;24.50;62.81;97502.03;5187984;28;20205;-63
2021/07/24 08:08:16;;;;;;;15.10;13.57;;;23.10;99.90;;;24.52;63.04;97504.63;5188022;28;20205;-64
2021/07/24 08:10:49;;;;;;;16.70;15.10;;;23.00;99.90;;;24.52;60.39;97504.63;5204507;28;20241;-64
2021/07/24 08:13:25;;;;;;;15.73;14.25;;;22.90;99.90;;;24.53;59.78;97511.59;5208349;28;20194;-64
2021/07/24 08:15:58;;;;;;;15.57;14.18;;;23.00;99.90;;;24.63;60.32;97525.50;5206767;28;20197;-64
2021/07/24 08:18:32;;;;;;;16.83;15.13;;;23.20;99.90;;;24.87;59.36;97521.91;5205377;28;20201;-65
2021/07/24 08:21:05;;;;;;;15.43;13.93;;;23.40;99.90;;;24.97;58.88;97534.03;5205879;28;20225;-64
2021/07/24 08:23:39;;;;;;;14.75;13.25;;;23.50;99.90;;;24.99;58.67;97528.81;5205576;28;20202;-64
2021/07/24 08:26:12;;;;;;;15.90;14.30;;;23.60;99.90;;;25.02;59.02;97520.97;5205648;28;20465;-64
2021/07/24 08:28:45;;;;;;;15.10;13.77;;;23.50;99.90;;;25.03;58.23;97517.44;5205733;28;20221;-64
2021/07/24 08:31:18;;;;;;;15.73;14.13;;;23.60;99.90;;;25.11;58.44;97507.81;5205628;28;20190;-64
2021/07/24 08:33:53;;;;;;;15.27;13.80;;;23.70;99.90;;;25.00;59.57;97507.88;5206103;28;20220;-64
2021/07/24 08:36:25;;;;;;;15.95;14.45;;;23.60;99.90;;;24.97;58.26;97507.03;5205536;28;20199;-64
2021/07/24 08:38:58;;;;;;;16.10;14.48;;;23.50;99.90;;;24.93;58.74;97507.06;5205892;28;20218;-64
2021/07/24 08:41:33;;;;;;;15.52;14.07;;;23.60;99.90;;;24.97;59.42;97507.91;5205256;28;20308;-64
2021/07/24 08:44:06;;;;;;;16.45;14.88;;;23.50;99.90;;;24.88;60.79;97502.72;5205697;28;20204;-64
2021/07/24 08:46:39;;;;;;;15.95;14.40;;;23.50;99.90;;;24.86;61.88;97481.81;5206399;28;20296;-64
2021/07/24 08:49:17;;;;;;;15.43;14.10;;;23.60;99.90;;;24.79;61.55;97455.72;5191048;28;20682;-64
2021/07/24 08:51:52;;;;;;;14.90;13.50;;;23.50;99.90;;;24.78;60.76;97433.03;5185933;28;20292;-64
2021/07/24 08:54:25;;;;;;;14.75;13.38;;;23.50;99.90;;;24.78;59.83;97426.09;5186448;28;20206;-64
2021/07/24 08:57:00;;;;;;;15.57;14.15;;;23.50;99.90;;;24.86;60.51;97411.19;5206624;28;20244;-64
2021/07/24 08:59:33;;;;;;;16.25;14.85;;;23.60;99.90;;;24.88;61.88;97400.75;5206998;28;20313;-64
2021/07/24 09:02:09;;;;;;;15.82;14.20;;;23.60;99.90;;;24.93;61.39;97378.06;5207426;28;20315;-64
2021/07/24 09:04:48;;;;;;;15.32;13.85;;;23.70;99.90;;;25.07;59.86;97368.34;5207421;28;20247;-64
2021/07/24 09:07:23;;;;;;;15.43;14.00;;;23.80;99.90;;;25.13;59.10;97378.75;5206434;28;20697;-65
2021/07/24 09:09:59;;;;;;;16.25;14.68;;;23.80;99.90;;;25.07;59.83;97383.19;5194777;28;20648;-65
2021/07/24 09:12:32;;;;;;;16.20;14.60;;;23.90;99.90;;;25.19;58.68;97377.00;5208395;28;20211;-65
2021/07/24 09:15:08;;;;;;;16.50;15.00;;;24.10;99.90;;;25.31;57.18;97382.13;5208439;28;20236;-65
2021/07/24 09:17:41;;;;;;;16.15;14.57;;;24.20;99.90;;;25.63;56.96;97389.66;5209262;28;20201;-66
2021/07/24 09:20:20;;;;;;;16.27;14.68;;;24.50;99.90;;;25.60;54.65;97390.53;5223801;22;20224;-67
2021/07/24 09:22:54;;;;;;;17.05;15.45;;;24.60;99.90;;;25.62;55.60;97386.16;5206252;28;20205;-67
2021/07/24 09:25:27;;;;;;;17.08;15.48;;;24.50;99.90;;;25.42;56.20;97369.81;5204729;28;20202;-67
2021/07/24 09:28:11;;;;;;;15.98;14.50;;;24.50;99.90;;;25.17;58.19;97358.69;5207928;28;20220;-66
2021/07/24 09:30:45;;;;;;;17.10;15.50;;;24.30;99.90;;;25.41;58.02;97355.00;5195366;28;20229;-67
2021/07/24 09:33:20;;;;;;;15.77;14.38;;;24.50;99.90;;;25.54;57.48;97364.44;5186831;28;20200;-67
2021/07/24 09:36:07;;;;;;;17.25;15.63;;;24.50;99.90;;;25.66;56.64;97365.19;5185962;28;20222;-67
2021/07/24 09:38:40;;;;;;;16.20;14.70;;;24.70;99.90;;;25.85;55.55;97353.66;5186342;28;20211;-67
2021/07/24 09:41:18;;;;;;;16.05;14.65;;;24.70;99.90;;;25.72;56.89;97350.28;5186788;28;20760;-67
2021/07/24 09:43:59;;;;;;;15.75;14.20;;;24.70;99.90;;;25.87;55.32;97351.91;5183948;28;20655;-66
2021/07/24 09:46:32;;;;;;;17.02;15.23;;;24.70;99.90;;;25.86;56.22;97350.16;5172052;28;20205;-67
2021/07/24 09:49:14;;;;;;;15.77;14.38;;;24.70;99.90;;;25.99;56.06;97356.97;5179250;28;20209;-67
2021/07/24 09:51:51;;;;;;;16.55;14.95;;;24.90;99.90;;;25.97;54.92;97369.22;5178470;28;20907;-67
2021/07/24 09:54:27;;;;;;;15.20;13.80;;;24.90;99.90;;;25.95;55.60;97370.13;5185222;28;20304;-68
2021/07/24 09:57:00;;;;;;;15.70;14.30;;;24.80;99.90;;;25.91;56.64;97385.00;5186824;28;20202;-67
2021/07/24 09:59:34;;;;;;;15.85;14.45;;;24.70;99.90;;;25.89;55.44;97389.41;5187817;28;20206;-67
2021/07/24 10:02:09;;;;;;;16.40;14.80;;;24.70;99.90;;;25.80;55.42;97381.63;5183459;28;20655;-66
2021/07/24 10:04:53;;;;;;;15.65;14.30;;;24.60;99.90;;;25.82;56.19;97395.56;5187447;28;20288;-67
2021/07/24 10:07:36;;;;;;;16.42;14.90;;;24.60;99.90;;;25.96;55.97;97395.44;5186841;28;20632;-67
2021/07/24 10:10:10;;;;;;;15.88;14.38;;;24.70;99.90;;;26.19;55.54;97389.94;5182278;28;20614;-67
2021/07/24 10:12:43;;;;;;;15.93;14.35;;;25.10;99.90;;;26.76;54.61;97381.31;5176086;28;20204;-67
2021/07/24 10:15:17;;;;;;;16.02;14.60;;;25.60;99.90;;;27.06;54.01;97393.94;5185629;28;20210;-67
2021/07/24 10:17:50;;;;;;;15.40;14.00;;;26.10;99.90;;;27.40;54.31;97393.41;5187163;28;20238;-67
2021/07/24 10:20:23;;;;;;;15.05;13.75;;;26.50;99.90;;;27.63;53.27;97395.63;5181731;28;20218;-67
2021/07/24 10:22:58;;;;;;;14.98;13.68;;;26.70;99.60;;;27.75;52.57;97390.13;5182491;28;20222;-68
2021/07/24 10:25:40;;;;;;;14.70;13.32;;;26.80;99.10;;;27.99;50.99;97385.34;5183711;28;20217;-67
2021/07/24 10:28:16;;;;;;;15.30;13.80;;;26.90;98.40;;;28.15;50.19;97392.00;5182462;28;20692;-67
2021/07/24 10:30:51;;;;;;;14.63;13.32;;;27.00;98.10;;;28.26;50.16;97386.53;5184726;28;20248;-67
2021/07/24 10:33:25;;;;;;;15.00;13.60;;;26.90;98.20;;;28.44;49.46;97383.53;5173100;28;20569;-67
2021/07/24 10:36:12;;;;;;;14.98;13.55;;;27.10;97.50;;;28.41;49.91;97377.44;5179979;28;20208;-67